PWSweather.com
Personal Weather Stations
Station Observations
KCOBOOMER
Belmont, Pueblo, CO 81001

BelmontPueblo, CO 81001

Lat: 38.2977486, Lon: -104.5754318

Elevation: 4795

Station Type: Davis Vantage Pro 2

http://www.puebloweather.net

Latest ConditionsUpdated 8:30:05 AM MDT Thursday, May 26, 2016
Currently Today's Max Today's Min Today's Average
Temperature 59.6°F15.3°C 64.8°F18.2°C 54.1°F12.3°C 57.1°F13.9°C
Dew Point 49.0°F9.4°C 49.0°F9.4°C 14.3°F-9.8°C 39.0°F3.9°C
Winds 2.0 mph NNE3.2 kmh NNE 25.0 mph WNW40.2 kmh WNW - 7.1 mph 11.4 kmh
Wind Gusts 8.0 mph12.9 kmh 34.0 mph54.7 kmh - -
Humidity 68% 71% 14% 55%
Pressure 29.67 in1004.7 mb 29.69 in1005.4 mb 29.62 in1003.0 mb -
Hour Temp Dew Point Humidity Winds Wind Gusts Pressure Precip Precip Rate Daily Precip Total
08:30 AM 59.6°F15.3°C 49.0°F9.4°C 68% 2.0 mph NNE3.2 kmh NNE 8.0 mph12.9 kmh 29.67 in1004.7 mb 0.00 in0.0 mm 0.00 in0.0 mm 0.00 in0.0 mm
08:25 AM 59.0°F15.0°C 48.5°F9.2°C 68% 11.0 mph NNE17.7 kmh NNE 16.0 mph25.7 kmh 29.68 in1005.1 mb 0.00 in0.0 mm 0.00 in0.0 mm 0.00 in0.0 mm
08:20 AM 58.7°F14.8°C 48.2°F9.0°C 68% 8.0 mph NE12.9 kmh NE 14.0 mph22.5 kmh 29.68 in1005.1 mb 0.00 in0.0 mm 0.00 in0.0 mm 0.00 in0.0 mm
08:15 AM 58.5°F14.7°C 48.0°F8.9°C 68% 10.0 mph NNE16.1 kmh NNE 14.0 mph22.5 kmh 29.68 in1005.1 mb 0.00 in0.0 mm 0.00 in0.0 mm 0.00 in0.0 mm
08:10 AM 58.3°F14.6°C 47.8°F8.8°C 68% 6.0 mph NE9.7 kmh NE 7.0 mph11.3 kmh 29.68 in1005.1 mb 0.00 in0.0 mm 0.00 in0.0 mm 0.00 in0.0 mm
08:05 AM 58.1°F14.5°C 47.6°F8.7°C 68% 4.0 mph NE6.4 kmh NE 14.0 mph22.5 kmh 29.68 in1005.1 mb 0.00 in0.0 mm 0.00 in0.0 mm 0.00 in0.0 mm
08:00 AM 57.8°F14.3°C 47.3°F8.5°C 68% 2.0 mph NNE3.2 kmh NNE 6.0 mph9.7 kmh 29.68 in1005.1 mb 0.00 in0.0 mm 0.00 in0.0 mm 0.00 in0.0 mm
07:55 AM 57.6°F14.2°C 47.5°F8.6°C 69% 11.0 mph N17.7 kmh N 12.0 mph19.3 kmh 29.68 in1005.1 mb 0.00 in0.0 mm 0.00 in0.0 mm 0.00 in0.0 mm
07:50 AM 57.4°F14.1°C 47.3°F8.5°C 69% 4.0 mph NNE6.4 kmh NNE 6.0 mph9.7 kmh 29.68 in1005.1 mb 0.00 in0.0 mm 0.00 in0.0 mm 0.00 in0.0 mm
07:45 AM 57.3°F14.1°C 47.2°F8.4°C 69% 8.0 mph NE12.9 kmh NE 12.0 mph19.3 kmh 29.68 in1005.1 mb 0.00 in0.0 mm 0.00 in0.0 mm 0.00 in0.0 mm
07:40 AM 57.2°F14.0°C 47.1°F8.4°C 69% 11.0 mph NNE17.7 kmh NNE 12.0 mph19.3 kmh 29.68 in1005.1 mb 0.00 in0.0 mm 0.00 in0.0 mm 0.00 in0.0 mm
07:35 AM 57.0°F13.9°C 46.9°F8.3°C 69% 5.0 mph NE8.0 kmh NE 10.0 mph16.1 kmh 29.69 in1005.4 mb 0.00 in0.0 mm 0.00 in0.0 mm 0.00 in0.0 mm
07:30 AM 56.8°F13.8°C 47.1°F8.4°C 70% 1.0 mph NE1.6 kmh NE 3.0 mph4.8 kmh 29.69 in1005.4 mb 0.00 in0.0 mm 0.00 in0.0 mm 0.00 in0.0 mm
07:25 AM 56.7°F13.7°C 47.0°F8.3°C 70% 4.0 mph NE6.4 kmh NE 13.0 mph20.9 kmh 29.68 in1005.1 mb 0.00 in0.0 mm 0.00 in0.0 mm 0.00 in0.0 mm
07:20 AM 56.7°F13.7°C 47.4°F8.6°C 71% 8.0 mph NE12.9 kmh NE 13.0 mph20.9 kmh 29.68 in1005.1 mb 0.00 in0.0 mm 0.00 in0.0 mm 0.00 in0.0 mm
07:15 AM 56.4°F13.6°C 47.1°F8.4°C 71% 12.0 mph NE19.3 kmh NE 18.0 mph29.0 kmh 29.68 in1005.1 mb 0.00 in0.0 mm 0.00 in0.0 mm 0.00 in0.0 mm
07:10 AM 56.0°F13.3°C 45.6°F7.6°C 68% 4.0 mph N6.4 kmh N 4.0 mph6.4 kmh 29.68 in1005.1 mb 0.00 in0.0 mm 0.00 in0.0 mm 0.00 in0.0 mm
07:05 AM 55.4°F13.0°C 45.4°F7.4°C 69% 4.0 mph N6.4 kmh N 17.0 mph27.4 kmh 29.68 in1005.1 mb 0.00 in0.0 mm 0.00 in0.0 mm 0.00 in0.0 mm
07:00 AM 54.8°F12.7°C 44.8°F7.1°C 69% 5.0 mph NNW8.0 kmh NNW 6.0 mph9.7 kmh 29.68 in1005.1 mb 0.00 in0.0 mm 0.00 in0.0 mm 0.00 in0.0 mm
06:55 AM 54.4°F12.4°C 44.1°F6.7°C 68% 9.0 mph NNW14.5 kmh NNW 16.0 mph25.7 kmh 29.68 in1005.1 mb 0.00 in0.0 mm 0.00 in0.0 mm 0.00 in0.0 mm
06:50 AM 54.2°F12.3°C 43.5°F6.4°C 67% 5.0 mph NW8.0 kmh NW 6.0 mph9.7 kmh 29.68 in1005.1 mb 0.00 in0.0 mm 0.00 in0.0 mm 0.00 in0.0 mm
06:45 AM 54.1°F12.3°C 43.4°F6.3°C 67% 2.0 mph NW3.2 kmh NW 10.0 mph16.1 kmh 29.68 in1005.1 mb 0.00 in0.0 mm 0.00 in0.0 mm 0.00 in0.0 mm
06:40 AM 54.1°F12.3°C 43.4°F6.3°C 67% Calm Calm 4.0 mph6.4 kmh 29.68 in1005.1 mb 0.00 in0.0 mm 0.00 in0.0 mm 0.00 in0.0 mm
06:35 AM 54.1°F12.3°C 43.4°F6.3°C 67% 2.0 mph NNW3.2 kmh NNW 8.0 mph12.9 kmh 29.68 in1005.1 mb 0.00 in0.0 mm 0.00 in0.0 mm 0.00 in0.0 mm
06:30 AM 54.1°F12.3°C 43.0°F6.1°C 66% 4.0 mph NNW6.4 kmh NNW 5.0 mph8.0 kmh 29.69 in1005.4 mb 0.00 in0.0 mm 0.00 in0.0 mm 0.00 in0.0 mm
06:25 AM 54.1°F12.3°C 43.0°F6.1°C 66% 2.0 mph NNW3.2 kmh NNW 4.0 mph6.4 kmh 29.69 in1005.4 mb 0.00 in0.0 mm 0.00 in0.0 mm 0.00 in0.0 mm
06:20 AM 54.1°F12.3°C 43.4°F6.3°C 67% Calm Calm 2.0 mph3.2 kmh 29.68 in1005.1 mb 0.00 in0.0 mm 0.00 in0.0 mm 0.00 in0.0 mm
06:15 AM 54.1°F12.3°C 43.4°F6.3°C 67% Calm Calm -- 29.68 in1005.1 mb 0.00 in0.0 mm 0.00 in0.0 mm 0.00 in0.0 mm
06:10 AM 54.1°F12.3°C 43.4°F6.3°C 67% Calm Calm -- 29.68 in1005.1 mb 0.00 in0.0 mm 0.00 in0.0 mm 0.00 in0.0 mm
06:05 AM 54.2°F12.3°C 43.5°F6.4°C 67% Calm Calm -- 29.69 in1005.4 mb 0.00 in0.0 mm 0.00 in0.0 mm 0.00 in0.0 mm
06:00 AM 54.2°F12.3°C 43.1°F6.2°C 66% Calm Calm -- 29.68 in1005.1 mb 0.00 in0.0 mm 0.00 in0.0 mm 0.00 in0.0 mm
05:55 AM 54.1°F12.3°C 43.0°F6.1°C 66% Calm Calm 8.0 mph12.9 kmh 29.68 in1005.1 mb 0.00 in0.0 mm 0.00 in0.0 mm 0.00 in0.0 mm
05:50 AM 54.1°F12.3°C 43.4°F6.3°C 67% Calm Calm -- 29.67 in1004.7 mb 0.00 in0.0 mm 0.00 in0.0 mm 0.00 in0.0 mm
05:45 AM 54.2°F12.3°C 43.5°F6.4°C 67% Calm Calm 6.0 mph9.7 kmh 29.67 in1004.7 mb 0.00 in0.0 mm 0.00 in0.0 mm 0.00 in0.0 mm
05:40 AM 54.5°F12.5°C 43.4°F6.3°C 66% Calm Calm -- 29.67 in1004.7 mb 0.00 in0.0 mm 0.00 in0.0 mm 0.00 in0.0 mm
05:35 AM 54.7°F12.6°C 43.6°F6.4°C 66% Calm Calm -- 29.67 in1004.7 mb 0.00 in0.0 mm 0.00 in0.0 mm 0.00 in0.0 mm
05:30 AM 54.9°F12.7°C 43.4°F6.3°C 65% Calm Calm -- 29.67 in1004.7 mb 0.00 in0.0 mm 0.00 in0.0 mm 0.00 in0.0 mm
05:25 AM 55.1°F12.8°C 43.6°F6.4°C 65% Calm Calm 1.0 mph1.6 kmh 29.68 in1005.1 mb 0.00 in0.0 mm 0.00 in0.0 mm 0.00 in0.0 mm
05:20 AM 55.4°F13.0°C 43.9°F6.6°C 65% Calm Calm -- 29.67 in1004.7 mb 0.00 in0.0 mm 0.00 in0.0 mm 0.00 in0.0 mm
05:15 AM 55.6°F13.1°C 43.6°F6.4°C 64% Calm Calm 4.0 mph6.4 kmh 29.67 in1004.7 mb 0.00 in0.0 mm 0.00 in0.0 mm 0.00 in0.0 mm
05:10 AM 55.7°F13.2°C 43.7°F6.5°C 64% 2.0 mph N3.2 kmh N 4.0 mph6.4 kmh 29.67 in1004.7 mb 0.00 in0.0 mm 0.00 in0.0 mm 0.00 in0.0 mm
05:05 AM 55.9°F13.3°C 43.5°F6.4°C 63% 1.0 mph N1.6 kmh N 13.0 mph20.9 kmh 29.67 in1004.7 mb 0.00 in0.0 mm 0.00 in0.0 mm 0.00 in0.0 mm
05:00 AM 56.1°F13.4°C 43.3°F6.3°C 62% 5.0 mph N8.0 kmh N 10.0 mph16.1 kmh 29.67 in1004.7 mb 0.00 in0.0 mm 0.00 in0.0 mm 0.00 in0.0 mm
04:55 AM 56.3°F13.5°C 43.5°F6.4°C 62% 4.0 mph NNE6.4 kmh NNE 11.0 mph17.7 kmh 29.67 in1004.7 mb 0.00 in0.0 mm 0.00 in0.0 mm 0.00 in0.0 mm
04:50 AM 56.5°F13.6°C 43.2°F6.2°C 61% Calm Calm 2.0 mph3.2 kmh 29.67 in1004.7 mb 0.00 in0.0 mm 0.00 in0.0 mm 0.00 in0.0 mm
04:45 AM 56.8°F13.8°C 43.1°F6.2°C 60% 4.0 mph NNE6.4 kmh NNE 15.0 mph24.1 kmh 29.67 in1004.7 mb 0.00 in0.0 mm 0.00 in0.0 mm 0.00 in0.0 mm
04:40 AM 56.9°F13.8°C 42.7°F5.9°C 59% 8.0 mph N12.9 kmh N 15.0 mph24.1 kmh 29.66 in1004.4 mb 0.00 in0.0 mm 0.00 in0.0 mm 0.00 in0.0 mm
04:35 AM 57.1°F13.9°C 42.9°F6.1°C 59% 6.0 mph N9.7 kmh N 24.0 mph38.6 kmh 29.66 in1004.4 mb 0.00 in0.0 mm 0.00 in0.0 mm 0.00 in0.0 mm
04:30 AM 57.1°F13.9°C 42.9°F6.1°C 59% 5.0 mph N8.0 kmh N 10.0 mph16.1 kmh 29.66 in1004.4 mb 0.00 in0.0 mm 0.00 in0.0 mm 0.00 in0.0 mm
04:25 AM 57.1°F13.9°C 42.9°F6.1°C 59% 14.0 mph NNW22.5 kmh NNW 22.0 mph35.4 kmh 29.66 in1004.4 mb 0.00 in0.0 mm 0.00 in0.0 mm 0.00 in0.0 mm
04:20 AM 57.0°F13.9°C 42.4°F5.8°C 58% 10.0 mph NW16.1 kmh NW 22.0 mph35.4 kmh 29.65 in1004.1 mb 0.00 in0.0 mm 0.00 in0.0 mm 0.00 in0.0 mm
04:15 AM 56.9°F13.8°C 42.3°F5.7°C 58% 18.0 mph NNW29.0 kmh NNW 28.0 mph45.1 kmh 29.65 in1004.1 mb 0.00 in0.0 mm 0.00 in0.0 mm 0.00 in0.0 mm
04:10 AM 56.8°F13.8°C 42.2°F5.7°C 58% 12.0 mph NNW19.3 kmh NNW 12.0 mph19.3 kmh 29.65 in1004.1 mb 0.00 in0.0 mm 0.00 in0.0 mm 0.00 in0.0 mm
04:05 AM 56.8°F13.8°C 42.2°F5.7°C 58% 11.0 mph NW17.7 kmh NW 25.0 mph40.2 kmh 29.65 in1004.1 mb 0.00 in0.0 mm 0.00 in0.0 mm 0.00 in0.0 mm
04:00 AM 56.8°F13.8°C 42.2°F5.7°C 58% 8.0 mph NW12.9 kmh NW 22.0 mph35.4 kmh 29.65 in1004.1 mb 0.00 in0.0 mm 0.00 in0.0 mm 0.00 in0.0 mm
03:55 AM 56.9°F13.8°C 42.3°F5.7°C 58% 13.0 mph NW20.9 kmh NW 22.0 mph35.4 kmh 29.65 in1004.1 mb 0.00 in0.0 mm 0.00 in0.0 mm 0.00 in0.0 mm
03:50 AM 57.0°F13.9°C 42.4°F5.8°C 58% 14.0 mph NW22.5 kmh NW 19.0 mph30.6 kmh 29.64 in1003.7 mb 0.00 in0.0 mm 0.00 in0.0 mm 0.00 in0.0 mm
03:45 AM 57.0°F13.9°C 42.4°F5.8°C 58% 16.0 mph NW25.7 kmh NW 20.0 mph32.2 kmh 29.64 in1003.7 mb 0.00 in0.0 mm 0.00 in0.0 mm 0.00 in0.0 mm
03:40 AM 56.9°F13.8°C 41.8°F5.4°C 57% 20.0 mph NW32.2 kmh NW 20.0 mph32.2 kmh 29.64 in1003.7 mb 0.00 in0.0 mm 0.00 in0.0 mm 0.00 in0.0 mm
03:35 AM 56.9°F13.8°C 41.8°F5.4°C 57% 7.0 mph NW11.3 kmh NW 25.0 mph40.2 kmh 29.65 in1004.1 mb 0.00 in0.0 mm 0.00 in0.0 mm 0.00 in0.0 mm
03:30 AM 56.9°F13.8°C 42.3°F5.7°C 58% 3.0 mph NNW4.8 kmh NNW 8.0 mph12.9 kmh 29.65 in1004.1 mb 0.00 in0.0 mm 0.00 in0.0 mm 0.00 in0.0 mm
03:25 AM 56.8°F13.8°C 42.2°F5.7°C 58% 16.0 mph NNW25.7 kmh NNW 34.0 mph54.7 kmh 29.64 in1003.7 mb 0.00 in0.0 mm 0.00 in0.0 mm 0.00 in0.0 mm
03:20 AM 56.7°F13.7°C 41.7°F5.4°C 57% 13.0 mph NW20.9 kmh NW 15.0 mph24.1 kmh 29.66 in1004.4 mb 0.00 in0.0 mm 0.00 in0.0 mm 0.00 in0.0 mm
03:15 AM 56.6°F13.7°C 42.0°F5.6°C 58% 10.0 mph W16.1 kmh W 15.0 mph24.1 kmh 29.65 in1004.1 mb 0.00 in0.0 mm 0.00 in0.0 mm 0.00 in0.0 mm
03:10 AM 56.4°F13.6°C 41.4°F5.2°C 57% 14.0 mph NNW22.5 kmh NNW 14.0 mph22.5 kmh 29.64 in1003.7 mb 0.00 in0.0 mm 0.00 in0.0 mm 0.00 in0.0 mm
03:05 AM 56.2°F13.4°C 41.2°F5.1°C 57% 6.0 mph N9.7 kmh N 26.0 mph41.8 kmh 29.64 in1003.7 mb 0.00 in0.0 mm 0.00 in0.0 mm 0.00 in0.0 mm
03:00 AM 56.2°F13.4°C 41.2°F5.1°C 57% 15.0 mph NNW24.1 kmh NNW 26.0 mph41.8 kmh 29.64 in1003.7 mb 0.00 in0.0 mm 0.00 in0.0 mm 0.00 in0.0 mm
02:55 AM 56.1°F13.4°C 41.1°F5.1°C 57% 6.0 mph NW9.7 kmh NW 25.0 mph40.2 kmh 29.65 in1004.1 mb 0.00 in0.0 mm 0.00 in0.0 mm 0.00 in0.0 mm
02:50 AM 56.0°F13.3°C 41.0°F5.0°C 57% 5.0 mph NW8.0 kmh NW 6.0 mph9.7 kmh 29.64 in1003.7 mb 0.00 in0.0 mm 0.00 in0.0 mm 0.00 in0.0 mm
02:45 AM 55.9°F13.3°C 41.4°F5.2°C 58% 10.0 mph NW16.1 kmh NW 23.0 mph37.0 kmh 29.64 in1003.7 mb 0.00 in0.0 mm 0.00 in0.0 mm 0.00 in0.0 mm
02:40 AM 55.8°F13.2°C 41.3°F5.2°C 58% 10.0 mph WNW16.1 kmh WNW 12.0 mph19.3 kmh 29.64 in1003.7 mb 0.00 in0.0 mm 0.00 in0.0 mm 0.00 in0.0 mm
02:35 AM 55.8°F13.2°C 40.8°F4.9°C 57% 14.0 mph NW22.5 kmh NW 22.0 mph35.4 kmh 29.64 in1003.7 mb 0.00 in0.0 mm 0.00 in0.0 mm 0.00 in0.0 mm
02:30 AM 55.7°F13.2°C 40.7°F4.8°C 57% 12.0 mph NNW19.3 kmh NNW 16.0 mph25.7 kmh 29.64 in1003.7 mb 0.00 in0.0 mm 0.00 in0.0 mm 0.00 in0.0 mm
02:25 AM 55.6°F13.1°C 40.2°F4.6°C 56% 16.0 mph WNW25.7 kmh WNW 26.0 mph41.8 kmh 29.65 in1004.1 mb 0.00 in0.0 mm 0.00 in0.0 mm 0.00 in0.0 mm
02:20 AM 55.5°F13.1°C 39.1°F3.9°C 54% 12.0 mph NW19.3 kmh NW 12.0 mph19.3 kmh 29.65 in1004.1 mb 0.00 in0.0 mm 0.00 in0.0 mm 0.00 in0.0 mm
02:15 AM 55.5°F13.1°C 38.7°F3.7°C 53% 12.0 mph NW19.3 kmh NW 22.0 mph35.4 kmh 29.64 in1003.7 mb 0.00 in0.0 mm 0.00 in0.0 mm 0.00 in0.0 mm
02:10 AM 55.6°F13.1°C 38.3°F3.5°C 52% 14.0 mph WNW22.5 kmh WNW 16.0 mph25.7 kmh 29.64 in1003.7 mb 0.00 in0.0 mm 0.00 in0.0 mm 0.00 in0.0 mm
02:05 AM 55.7°F13.2°C 38.4°F3.6°C 52% 8.0 mph WNW12.9 kmh WNW 23.0 mph37.0 kmh 29.64 in1003.7 mb 0.00 in0.0 mm 0.00 in0.0 mm 0.00 in0.0 mm
02:00 AM 55.7°F13.2°C 37.9°F3.3°C 51% 14.0 mph WNW22.5 kmh WNW 23.0 mph37.0 kmh 29.65 in1004.1 mb 0.00 in0.0 mm 0.00 in0.0 mm 0.00 in0.0 mm
01:55 AM 55.8°F13.2°C 37.5°F3.1°C 50% 10.0 mph NW16.1 kmh NW 20.0 mph32.2 kmh 29.65 in1004.1 mb 0.00 in0.0 mm 0.00 in0.0 mm 0.00 in0.0 mm
01:50 AM 55.9°F13.3°C 37.6°F3.1°C 50% 17.0 mph WNW27.4 kmh WNW 20.0 mph32.2 kmh 29.64 in1003.7 mb 0.00 in0.0 mm 0.00 in0.0 mm 0.00 in0.0 mm
01:45 AM 55.9°F13.3°C 36.5°F2.5°C 48% 10.0 mph WNW16.1 kmh WNW 22.0 mph35.4 kmh 29.65 in1004.1 mb 0.00 in0.0 mm 0.00 in0.0 mm 0.00 in0.0 mm
01:40 AM 55.7°F13.2°C 33.0°F0.6°C 42% 5.0 mph W8.0 kmh W 9.0 mph14.5 kmh 29.65 in1004.1 mb 0.00 in0.0 mm 0.00 in0.0 mm 0.00 in0.0 mm
01:35 AM 55.5°F13.1°C 32.2°F0.1°C 41% 2.0 mph WNW3.2 kmh WNW 14.0 mph22.5 kmh 29.65 in1004.1 mb 0.00 in0.0 mm 0.00 in0.0 mm 0.00 in0.0 mm
01:30 AM 55.5°F13.1°C 31.0°F-0.6°C 39% 4.0 mph NW6.4 kmh NW 6.0 mph9.7 kmh 29.64 in1003.7 mb 0.00 in0.0 mm 0.00 in0.0 mm 0.00 in0.0 mm
01:25 AM 55.7°F13.2°C 29.2°F-1.6°C 36% 7.0 mph NW11.3 kmh NW 20.0 mph32.2 kmh 29.64 in1003.7 mb 0.00 in0.0 mm 0.00 in0.0 mm 0.00 in0.0 mm
01:20 AM 56.3°F13.5°C 29.0°F-1.7°C 35% 12.0 mph NW19.3 kmh NW 17.0 mph27.4 kmh 29.64 in1003.7 mb 0.00 in0.0 mm 0.00 in0.0 mm 0.00 in0.0 mm
01:15 AM 57.2°F14.0°C 29.1°F-1.6°C 34% 25.0 mph WNW40.2 kmh WNW 25.0 mph40.2 kmh 29.64 in1003.7 mb 0.00 in0.0 mm 0.00 in0.0 mm 0.00 in0.0 mm
01:10 AM 58.0°F14.4°C 29.1°F-1.6°C 33% 15.0 mph NW24.1 kmh NW 21.0 mph33.8 kmh 29.64 in1003.7 mb 0.00 in0.0 mm 0.00 in0.0 mm 0.00 in0.0 mm
01:05 AM 59.0°F15.0°C 28.4°F-2.0°C 31% 10.0 mph WNW16.1 kmh WNW 22.0 mph35.4 kmh 29.64 in1003.7 mb 0.00 in0.0 mm 0.00 in0.0 mm 0.00 in0.0 mm
01:00 AM 60.2°F15.7°C 27.0°F-2.8°C 28% 6.0 mph WSW9.7 kmh WSW 10.0 mph16.1 kmh 29.64 in1003.7 mb 0.00 in0.0 mm 0.00 in0.0 mm 0.00 in0.0 mm
12:55 AM 61.1°F16.2°C 23.1°F-4.9°C 23% 14.0 mph WSW22.5 kmh WSW 18.0 mph29.0 kmh 29.65 in1004.1 mb 0.00 in0.0 mm 0.00 in0.0 mm 0.00 in0.0 mm
12:50 AM 61.8°F16.6°C 21.5°F-5.8°C 21% 18.0 mph NW29.0 kmh NW 18.0 mph29.0 kmh 29.66 in1004.4 mb 0.00 in0.0 mm 0.00 in0.0 mm 0.00 in0.0 mm
12:45 AM 62.6°F17.0°C 18.5°F-7.5°C 18% 4.0 mph NW6.4 kmh NW 18.0 mph29.0 kmh 29.66 in1004.4 mb 0.00 in0.0 mm 0.00 in0.0 mm 0.00 in0.0 mm
12:40 AM 63.3°F17.4°C 17.8°F-7.9°C 17% 10.0 mph NNW16.1 kmh NNW 10.0 mph16.1 kmh 29.66 in1004.4 mb 0.00 in0.0 mm 0.00 in0.0 mm 0.00 in0.0 mm
12:35 AM 64.2°F17.9°C 17.1°F-8.3°C 16% 12.0 mph NE19.3 kmh NE 18.0 mph29.0 kmh 29.65 in1004.1 mb 0.00 in0.0 mm 0.00 in0.0 mm 0.00 in0.0 mm
12:30 AM 64.5°F18.1°C 17.3°F-8.2°C 16% 6.0 mph NNW9.7 kmh NNW 9.0 mph14.5 kmh 29.64 in1003.7 mb 0.00 in0.0 mm 0.00 in0.0 mm 0.00 in0.0 mm
12:25 AM 64.5°F18.1°C 14.3°F-9.8°C 14% Calm Calm 9.0 mph14.5 kmh 29.63 in1003.4 mb 0.00 in0.0 mm 0.00 in0.0 mm 0.00 in0.0 mm
12:20 AM 64.6°F18.1°C 15.9°F-8.9°C 15% 1.0 mph SSW1.6 kmh SSW 1.0 mph1.6 kmh 29.63 in1003.4 mb 0.00 in0.0 mm 0.00 in0.0 mm 0.00 in0.0 mm
12:15 AM 64.5°F18.1°C 14.3°F-9.8°C 14% Calm Calm 4.0 mph6.4 kmh 29.62 in1003.0 mb 0.00 in0.0 mm 0.00 in0.0 mm 0.00 in0.0 mm
12:10 AM 64.6°F18.1°C 14.4°F-9.8°C 14% 4.0 mph S6.4 kmh S 4.0 mph6.4 kmh 29.62 in1003.0 mb 0.00 in0.0 mm 0.00 in0.0 mm 0.00 in0.0 mm
12:05 AM 64.8°F18.2°C 14.5°F-9.7°C 14% 1.0 mph SW1.6 kmh SW 14.0 mph22.5 kmh 29.62 in1003.0 mb 0.00 in0.0 mm 0.00 in0.0 mm 0.00 in0.0 mm
12:00 AM 64.8°F18.2°C 14.5°F-9.7°C 14% 10.0 mph SW16.1 kmh SW 14.0 mph22.5 kmh 29.62 in1003.0 mb 0.00 in0.0 mm 0.00 in0.0 mm 0.00 in0.0 mm